Wabana, Canada
Current Conditions -  °F | °C
As of 11:18 PM on Saturday 25 Oct 2014 (Local Time) from CYYT Reporting Station
Drizzle Drizzle  
Wind Chill: 41°   Ceiling: 200
Heat Index: 46°   Visibility: 0.37mi
Dew Point: 46°   Wind: 12mph
Humidity: 100%   Direction: 20°NNE
Pressure: 29.38"   Gusts: NA
Location:  47.65°N, 52.93°W
Report Text: CYYT 260118Z 02010KT 3/8SM R11/2400FT/N -DZ FG VV002 08/08 A2938 RMK FG8 SLP950
Loading
Personal Weather Stations






























Interactive Weather Map
Tropical Storm Tracking
New forecast layout! Learn more

10-Day Weather Forecast

Advertisements
Track Severe Weather on mobile